Wind From: 20-06-2018 11:00 Until: 22:00 warning for: Wind Level: Yellow info button
suomi:
Tuulivaroitus maa-alueille: Länsituuli on voimakasta keskipäivästä alkaen, tuulen nopeus puuskissa 15 m/s.

svenska:
Vindvarning för landområden: Från och med middagen är den västliga vinden kraftigt, i vindbyarna 15 m/s.

english:
Wind warning for land areas: From noon on, strong winds from west may bring strong gusts of 15 m/s. 


Thunder radar more information blitzortung!


Löydät sääaseman tiedot myös:

European Weather Network

Finland Weather Exchange

Weather Underground

AWEKAS



Weather Underground säähistoriasivu

Päivittäin yhteenveto Maaliskuu 11, 2017 Yksiköt:  Molemmat    Englantilaiset   Metriset
« Edellinen Päivä
Seuraava Päivä »
Päivittäin Viikoittain Kuukausittain Vuosittain Mukautettu
  Korkea: Matala: Keskiarvo:
Lämpötila: TemperatureC °F /  -17.8 °C -6.4 °F /  -21.3 °C -1.5 °F /  -18.6 °C
Kastepiste: DewpointC °F /  -17.8 °C -7.2 °F /  -21.8 °C -2.6 °F /  -19.2 °C
Kosteus: Humidity % 82 % 91 %
Tuulen nopeus: WindSpeedKMH mph /  0 km/h - 1.7 mph /  2.7 km/h
Tuulenpuuska: WindSpeedGustKMH mph /  0 km/h - -
Tuuli:- - SW
Ilmanpaine: PressurehPa in /  0 hPa 1014.8 in /  34361.1 hPa -
Sade: 0.0 in /  0 mm    
Historical Graphs
 
 
Taulukkotiedot Maaliskuu 11, 2017
Aika Lämpötila Kastepiste Ilmanpaine Tuuli Tuulen nopeus Tuulenpuuska Kosteus Sademäärä (tunneittain)
TemperatureC °F /  -17.8 °C DewpointC °F /  -17.8 °C PressurehPa in /  0 hPa Calm     Humidity % HourlyPrecipMM in /  0 mm
00:00 -3.3 °F /  -19.6 °C -4.0 °F /  -20 °C 1014.8 in /  34361.1 hPa Calm     95 % 0.0 in /  0 mm
00:15 -3.5 °F /  -19.7 °C -4.2 °F /  -20.1 °C 1014.8 in /  34361.1 hPa Calm     95 % 0.0 in /  0 mm
00:30 -3.7 °F /  -19.8 °C -4.4 °F /  -20.2 °C 1015.1 in /  34371.3 hPa Calm     95 % 0.0 in /  0 mm
00:45 -3.8 °F /  -19.9 °C -4.5 °F /  -20.3 °C 1015.1 in /  34371.3 hPa Calm     95 % 0.0 in /  0 mm
01:00 -3.8 °F /  -19.9 °C -4.5 °F /  -20.3 °C 1015.1 in /  34371.3 hPa Calm     95 % 0.0 in /  0 mm
01:15 -4.0 °F /  -20 °C -4.7 °F /  -20.4 °C 1015.1 in /  34371.3 hPa Calm     95 % 0.0 in /  0 mm
01:30 -4.2 °F /  -20.1 °C -4.8 °F /  -20.4 °C 1015.1 in /  34371.3 hPa Calm     95 % 0.0 in /  0 mm
01:45 -4.2 °F /  -20.1 °C -4.9 °F /  -20.5 °C 1015.5 in /  34384.8 hPa Calm     95 % 0.0 in /  0 mm
02:00 -4.3 °F /  -20.2 °C -5.0 °F /  -20.6 °C 1015.5 in /  34384.8 hPa Calm     95 % 0.0 in /  0 mm
02:15 -4.3 °F /  -20.2 °C -5.0 °F /  -20.6 °C 1015.5 in /  34384.8 hPa Calm     95 % 0.0 in /  0 mm
02:30 -4.4 °F /  -20.2 °C -4.9 °F /  -20.5 °C 1015.5 in /  34384.8 hPa Calm     96 % 0.0 in /  0 mm
02:45 -4.6 °F /  -20.3 °C -5.2 °F /  -20.7 °C 1015.5 in /  34384.8 hPa Calm     95 % 0.0 in /  0 mm
03:00 -4.7 °F /  -20.4 °C -5.3 °F /  -20.7 °C 1015.8 in /  34395 hPa Calm     95 % 0.0 in /  0 mm
03:15 -4.8 °F /  -20.4 °C -5.5 °F /  -20.8 °C 1015.8 in /  34395 hPa Calm     95 % 0.0 in /  0 mm
03:30 -4.8 °F /  -20.4 °C -5.5 °F /  -20.8 °C 1015.8 in /  34395 hPa Calm     95 % 0.0 in /  0 mm
03:45 -4.8 °F /  -20.4 °C -5.5 °F /  -20.8 °C 1015.8 in /  34395 hPa Calm     95 % 0.0 in /  0 mm
04:00 -5.1 °F /  -20.6 °C -5.8 °F /  -21 °C 1015.8 in /  34395 hPa Calm     95 % 0.0 in /  0 mm
04:15 -5.4 °F /  -20.8 °C -6.1 °F /  -21.2 °C 1016.1 in /  34405.1 hPa Calm     95 % 0.0 in /  0 mm
04:30 -5.4 °F /  -20.8 °C -6.1 °F /  -21.2 °C 1016.1 in /  34405.1 hPa Calm     95 % 0.0 in /  0 mm
04:45 -5.7 °F /  -20.9 °C -6.3 °F /  -21.3 °C 1016.1 in /  34405.1 hPa Calm     95 % 0.0 in /  0 mm
05:00 -5.8 °F /  -21 °C -6.6 °F /  -21.4 °C 1016.1 in /  34405.1 hPa Calm     94 % 0.0 in /  0 mm
05:15 -5.8 °F /  -21 °C -6.5 °F /  -21.4 °C 1016.1 in /  34405.1 hPa Calm     95 % 0.0 in /  0 mm
05:30 -6.0 °F /  -21.1 °C -6.7 °F /  -21.5 °C 1016.1 in /  34405.1 hPa Calm     95 % 0.0 in /  0 mm
05:45 -6.3 °F /  -21.3 °C -7.1 °F /  -21.7 °C 1016.5 in /  34418.7 hPa Calm     94 % 0.0 in /  0 mm
06:00 -6.4 °F /  -21.3 °C -7.2 °F /  -21.8 °C 1016.5 in /  34418.7 hPa Calm     94 % 0.0 in /  0 mm
06:15 -6.3 °F /  -21.3 °C -7.0 °F /  -21.7 °C 1016.5 in /  34418.7 hPa Calm     95 % 0.0 in /  0 mm
06:30 -6.2 °F /  -21.2 °C -6.9 °F /  -21.6 °C 1016.5 in /  34418.7 hPa Calm     95 % 0.0 in /  0 mm
06:45 -6.3 °F /  -21.3 °C -7.1 °F /  -21.7 °C 1016.8 in /  34428.8 hPa Calm     94 % 0.0 in /  0 mm
07:00 -6.3 °F /  -21.3 °C -6.9 °F /  -21.6 °C 1016.8 in /  34428.8 hPa Calm     95 % 0.0 in /  0 mm
07:15 -6.3 °F /  -21.3 °C -7.1 °F /  -21.7 °C 1016.8 in /  34428.8 hPa Calm     94 % 0.0 in /  0 mm
07:30 -6.3 °F /  -21.3 °C -7.0 °F /  -21.7 °C 1017.2 in /  34442.4 hPa Calm     95 % 0.0 in /  0 mm
07:45 -6.2 °F /  -21.2 °C -6.9 °F /  -21.6 °C 1017.2 in /  34442.4 hPa Calm     95 % 0.0 in /  0 mm
08:00 -6.2 °F /  -21.2 °C -6.8 °F /  -21.6 °C 1017.2 in /  34442.4 hPa Calm     95 % 0.0 in /  0 mm
08:15 -5.9 °F /  -21.1 °C -6.6 °F /  -21.4 °C 1017.2 in /  34442.4 hPa Calm     95 % 0.0 in /  0 mm
08:30 -5.3 °F /  -20.7 °C -5.8 °F /  -21 °C 1017.5 in /  34452.6 hPa Calm   1.6 mph /  2.6 km/h 96 % 0.0 in /  0 mm
08:45 -4.5 °F /  -20.3 °C -5.0 °F /  -20.6 °C 1017.5 in /  34452.6 hPa Calm   6.4 mph /  10.3 km/h 96 % 0.0 in /  0 mm
09:00 -3.8 °F /  -19.9 °C -4.2 °F /  -20.1 °C 1017.8 in /  34462.7 hPa South 1.6 mph /  2.6 km/h 4.8 mph /  7.7 km/h 97 % 0.0 in /  0 mm
09:15 -3.3 °F /  -19.6 °C -3.7 °F /  -19.8 °C 1017.8 in /  34462.7 hPa SSW 3.2 mph /  5.1 km/h 6.4 mph /  10.3 km/h 97 % 0.0 in /  0 mm
09:30 -2.8 °F /  -19.3 °C -3.3 °F /  -19.6 °C 1017.8 in /  34462.7 hPa Calm   3.2 mph /  5.1 km/h 96 % 0.0 in /  0 mm
09:45 -2.2 °F /  -19 °C -2.6 °F /  -19.2 °C 1018.2 in /  34476.3 hPa South 1.6 mph /  2.6 km/h 6.4 mph /  10.3 km/h 97 % 0.0 in /  0 mm
10:00 -1.7 °F /  -18.7 °C -2.2 °F /  -19 °C 1018.2 in /  34476.3 hPa Calm   1.6 mph /  2.6 km/h 96 % 0.0 in /  0 mm
10:15 -0.9 °F /  -18.3 °C -1.4 °F /  -18.6 °C 1018.2 in /  34476.3 hPa Calm   3.2 mph /  5.1 km/h 97 % 0.0 in /  0 mm
10:30 -0.2 °F /  -17.9 °C -0.7 °F /  -18.2 °C 1018.5 in /  34486.4 hPa Calm   4.8 mph /  7.7 km/h 96 % 0.0 in /  0 mm
10:45 0.3 °F /  -17.6 °C -0.7 °F /  -18.2 °C 1018.2 in /  34476.3 hPa SSW 1.6 mph /  2.6 km/h 8.0 mph /  12.9 km/h 93 % 0.0 in /  0 mm
11:00 0.9 °F /  -17.3 °C -0.4 °F /  -18 °C 1018.5 in /  34486.4 hPa SW 1.6 mph /  2.6 km/h 9.7 mph /  15.6 km/h 91 % 0.0 in /  0 mm
11:15 1.7 °F /  -16.8 °C -0.1 °F /  -17.8 °C 1018.8 in /  34496.6 hPa WSW 1.6 mph /  2.6 km/h 6.4 mph /  10.3 km/h 88 % 0.0 in /  0 mm
11:30 2.2 °F /  -16.6 °C 0.1 °F /  -17.7 °C 1018.8 in /  34496.6 hPa WSW 3.2 mph /  5.1 km/h 8.0 mph /  12.9 km/h 86 % 0.0 in /  0 mm
11:45 2.7 °F /  -16.3 °C 0.2 °F /  -17.7 °C 1019.2 in /  34510.1 hPa West 3.2 mph /  5.1 km/h 9.7 mph /  15.6 km/h 84 % 0.0 in /  0 mm
12:00 3.0 °F /  -16.1 °C 0.6 °F /  -17.4 °C 1018.8 in /  34496.6 hPa West 3.2 mph /  5.1 km/h 11.3 mph /  18.2 km/h 84 % 0.0 in /  0 mm
12:15 3.3 °F /  -15.9 °C 0.8 °F /  -17.3 °C 1018.8 in /  34496.6 hPa SSW 4.8 mph /  7.7 km/h 11.3 mph /  18.2 km/h 84 % 0.0 in /  0 mm
12:30 3.6 °F /  -15.8 °C 1.0 °F /  -17.2 °C 1018.8 in /  34496.6 hPa SW 3.2 mph /  5.1 km/h 11.3 mph /  18.2 km/h 83 % 0.0 in /  0 mm
12:45 3.7 °F /  -15.7 °C 1.0 °F /  -17.2 °C 1018.5 in /  34486.4 hPa West 3.2 mph /  5.1 km/h 12.9 mph /  20.8 km/h 83 % 0.0 in /  0 mm
13:00 3.9 °F /  -15.6 °C 1.1 °F /  -17.2 °C 1018.5 in /  34486.4 hPa SW 3.2 mph /  5.1 km/h 11.3 mph /  18.2 km/h 82 % 0.0 in /  0 mm
13:15 3.8 °F /  -15.7 °C 1.2 °F /  -17.1 °C 1018.8 in /  34496.6 hPa SSW 6.4 mph /  10.3 km/h 14.5 mph /  23.3 km/h 83 % 0.0 in /  0 mm
13:30 3.7 °F /  -15.7 °C 1.2 °F /  -17.1 °C 1018.8 in /  34496.6 hPa SSW 6.4 mph /  10.3 km/h 12.9 mph /  20.8 km/h 84 % 0.0 in /  0 mm
13:45 3.4 °F /  -15.9 °C 1.1 °F /  -17.2 °C 1018.8 in /  34496.6 hPa SSW 3.2 mph /  5.1 km/h 12.9 mph /  20.8 km/h 85 % 0.0 in /  0 mm
14:00 3.2 °F /  -16 °C 1.0 °F /  -17.2 °C 1019.2 in /  34510.1 hPa SW 4.8 mph /  7.7 km/h 12.9 mph /  20.8 km/h 86 % 0.0 in /  0 mm
14:15 3.1 °F /  -16.1 °C 1.0 °F /  -17.2 °C 1019.2 in /  34510.1 hPa SW 4.8 mph /  7.7 km/h 14.5 mph /  23.3 km/h 86 % 0.0 in /  0 mm
14:30 2.9 °F /  -16.2 °C 0.8 °F /  -17.3 °C 1019.2 in /  34510.1 hPa SSW 6.4 mph /  10.3 km/h 19.3 mph /  31.1 km/h 86 % 0.0 in /  0 mm
14:45 2.9 °F /  -16.2 °C 0.9 °F /  -17.3 °C 1019.2 in /  34510.1 hPa SW 3.2 mph /  5.1 km/h 9.7 mph /  15.6 km/h 87 % 0.0 in /  0 mm
15:00 2.8 °F /  -16.2 °C 0.8 °F /  -17.3 °C 1019.2 in /  34510.1 hPa SW 4.8 mph /  7.7 km/h 12.9 mph /  20.8 km/h 87 % 0.0 in /  0 mm
15:15 2.6 °F /  -16.3 °C 0.6 °F /  -17.4 °C 1019.5 in /  34520.3 hPa SW 4.8 mph /  7.7 km/h 12.9 mph /  20.8 km/h 87 % 0.0 in /  0 mm
15:30 2.4 °F /  -16.4 °C 0.4 °F /  -17.6 °C 1019.5 in /  34520.3 hPa SW 4.8 mph /  7.7 km/h 17.7 mph /  28.5 km/h 87 % 0.0 in /  0 mm
15:45 2.2 °F /  -16.6 °C 0.3 °F /  -17.6 °C 1019.5 in /  34520.3 hPa SSW 4.8 mph /  7.7 km/h 11.3 mph /  18.2 km/h 87 % 0.0 in /  0 mm
16:00 1.9 °F /  -16.7 °C 0.2 °F /  -17.7 °C 1019.5 in /  34520.3 hPa SSW 4.8 mph /  7.7 km/h 12.9 mph /  20.8 km/h 88 % 0.0 in /  0 mm
16:15 1.8 °F /  -16.8 °C 0.2 °F /  -17.7 °C 1019.5 in /  34520.3 hPa SSW 3.2 mph /  5.1 km/h 11.3 mph /  18.2 km/h 89 % 0.0 in /  0 mm
16:30 1.7 °F /  -16.8 °C 0.0 °F /  -17.8 °C 1019.5 in /  34520.3 hPa SSW 3.2 mph /  5.1 km/h 9.7 mph /  15.6 km/h 89 % 0.0 in /  0 mm
16:45 1.4 °F /  -17 °C -0.2 °F /  -17.9 °C 1019.9 in /  34533.8 hPa SSW 3.2 mph /  5.1 km/h 9.7 mph /  15.6 km/h 89 % 0.0 in /  0 mm
17:00 1.3 °F /  -17.1 °C -0.3 °F /  -17.9 °C 1019.9 in /  34533.8 hPa SW 4.8 mph /  7.7 km/h 9.7 mph /  15.6 km/h 89 % 0.0 in /  0 mm
17:15 1.1 °F /  -17.2 °C -0.3 °F /  -17.9 °C 1019.5 in /  34520.3 hPa SW 4.8 mph /  7.7 km/h 12.9 mph /  20.8 km/h 90 % 0.0 in /  0 mm
17:30 1.0 °F /  -17.2 °C -0.5 °F /  -18.1 °C 1019.5 in /  34520.3 hPa SSW 4.8 mph /  7.7 km/h 12.9 mph /  20.8 km/h 90 % 0.0 in /  0 mm
17:45 0.9 °F /  -17.3 °C -0.5 °F /  -18.1 °C 1019.9 in /  34533.8 hPa WSW 3.2 mph /  5.1 km/h 14.5 mph /  23.3 km/h 90 % 0.0 in /  0 mm
18:00 0.8 °F /  -17.3 °C -0.6 °F /  -18.1 °C 1019.9 in /  34533.8 hPa SW 3.2 mph /  5.1 km/h 11.3 mph /  18.2 km/h 90 % 0.0 in /  0 mm
18:15 0.7 °F /  -17.4 °C -0.6 °F /  -18.1 °C 1019.9 in /  34533.8 hPa WSW 1.6 mph /  2.6 km/h 6.4 mph /  10.3 km/h 91 % 0.0 in /  0 mm
18:30 0.6 °F /  -17.4 °C -0.7 °F /  -18.2 °C 1019.9 in /  34533.8 hPa SW 1.6 mph /  2.6 km/h 6.4 mph /  10.3 km/h 91 % 0.0 in /  0 mm
18:45 0.4 °F /  -17.6 °C -0.9 °F /  -18.3 °C 1020.2 in /  34544 hPa SW 1.6 mph /  2.6 km/h 6.4 mph /  10.3 km/h 91 % 0.0 in /  0 mm
19:00 0.3 °F /  -17.6 °C -1.0 °F /  -18.3 °C 1020.2 in /  34544 hPa Calm     91 % 0.0 in /  0 mm
19:15 0.0 °F /  -17.8 °C -1.1 °F /  -18.4 °C 1020.2 in /  34544 hPa Calm     92 % 0.0 in /  0 mm
19:30 -0.2 °F /  -17.9 °C -1.4 °F /  -18.6 °C 1020.2 in /  34544 hPa Calm   3.2 mph /  5.1 km/h 92 % 0.0 in /  0 mm
19:45 -0.3 °F /  -17.9 °C -1.3 °F /  -18.5 °C 1020.2 in /  34544 hPa Calm   3.2 mph /  5.1 km/h 93 % 0.0 in /  0 mm
20:00 -0.4 °F /  -18 °C -1.4 °F /  -18.6 °C 1020.5 in /  34554.1 hPa SW 3.2 mph /  5.1 km/h 8.0 mph /  12.9 km/h 93 % 0.0 in /  0 mm
20:15 -0.3 °F /  -17.9 °C -1.2 °F /  -18.4 °C 1020.5 in /  34554.1 hPa SSW 1.6 mph /  2.6 km/h 8.0 mph /  12.9 km/h 94 % 0.0 in /  0 mm
20:30 -0.4 °F /  -18 °C -1.2 °F /  -18.4 °C 1020.5 in /  34554.1 hPa SSW 3.2 mph /  5.1 km/h 6.4 mph /  10.3 km/h 94 % 0.0 in /  0 mm
20:45 -0.5 °F /  -18.1 °C -1.3 °F /  -18.5 °C 1020.5 in /  34554.1 hPa SSW 3.2 mph /  5.1 km/h 6.4 mph /  10.3 km/h 94 % 0.0 in /  0 mm
21:00 -0.7 °F /  -18.2 °C -1.5 °F /  -18.6 °C 1020.5 in /  34554.1 hPa SSW 3.2 mph /  5.1 km/h 11.3 mph /  18.2 km/h 94 % 0.0 in /  0 mm
21:15 -0.7 °F /  -18.2 °C -1.4 °F /  -18.6 °C 1020.5 in /  34554.1 hPa SSW 4.8 mph /  7.7 km/h 11.3 mph /  18.2 km/h 95 % 0.0 in /  0 mm
21:30 -0.8 °F /  -18.2 °C -1.5 °F /  -18.6 °C 1020.5 in /  34554.1 hPa SSW 3.2 mph /  5.1 km/h 8.0 mph /  12.9 km/h 95 % 0.0 in /  0 mm
21:45 -0.7 °F /  -18.2 °C -1.4 °F /  -18.6 °C 1020.9 in /  34567.7 hPa SSW 4.8 mph /  7.7 km/h 11.3 mph /  18.2 km/h 95 % 0.0 in /  0 mm
22:00 -0.9 °F /  -18.3 °C -1.6 °F /  -18.7 °C 1020.5 in /  34554.1 hPa SSW 3.2 mph /  5.1 km/h 8.0 mph /  12.9 km/h 95 % 0.0 in /  0 mm
22:15 -1.1 °F /  -18.4 °C -1.8 °F /  -18.8 °C 1020.5 in /  34554.1 hPa SSW 1.6 mph /  2.6 km/h 4.8 mph /  7.7 km/h 95 % 0.0 in /  0 mm
22:30 -1.5 °F /  -18.6 °C -2.2 °F /  -19 °C 1020.5 in /  34554.1 hPa Calm   4.8 mph /  7.7 km/h 95 % 0.0 in /  0 mm
22:45 -1.7 °F /  -18.7 °C -2.4 °F /  -19.1 °C 1020.5 in /  34554.1 hPa SSW 1.6 mph /  2.6 km/h 8.0 mph /  12.9 km/h 95 % 0.0 in /  0 mm
23:00 -1.9 °F /  -18.8 °C -2.6 °F /  -19.2 °C 1020.5 in /  34554.1 hPa South 1.6 mph /  2.6 km/h 6.4 mph /  10.3 km/h 95 % 0.0 in /  0 mm
23:15 -2.1 °F /  -18.9 °C -2.7 °F /  -19.3 °C 1020.5 in /  34554.1 hPa Calm   6.4 mph /  10.3 km/h 95 % 0.0 in /  0 mm
23:30 -2.1 °F /  -18.9 °C -2.7 °F /  -19.3 °C 1020.5 in /  34554.1 hPa SSW 1.6 mph /  2.6 km/h 6.4 mph /  10.3 km/h 96 % 0.0 in /  0 mm
23:45 -2.2 °F /  -19 °C -2.7 °F /  -19.3 °C 1020.5 in /  34554.1 hPa SSW 1.6 mph /  2.6 km/h 8.0 mph /  12.9 km/h 96 % 0.0 in /  0 mm
Esan sääasema
Terveisin Weather Underground - 2.75 mb

Alkuperäinen skripti  Jim McMurry - jmcmurry@mwt.net Sovitettu myös templatelle  Wim van der Kuil - Leuven-Template.eu

Laitteet joita käytämme:

Sääasema
Davis VP2

Sääasemaohjelma
Cumulus

Sääaseman tietokone
Asus EeePC

Palveluntarjoaja
Suncomet

Davis VP2

Cumulus

Asus EeePC

Suncomet